Time;durP1;ratioP1;P1;durP2;ratioP2;P2;SDS_P1;SDS_P2;PMS_P1;PMS_P2;Temp;Humidity;BMP_temperature;BMP_pressure;BME280_temperature;BME280_humidity;BME280_pressure;Samples;Min_cycle;Max_cycle;Signal;HPM_P1;HPM_P2
2022/11/08 00:03:47;;;;;;;8.48;2.45;;;13.80;99.90;;;;;;5082496;28;20039;-85
2022/11/08 00:14:25;;;;;;;11.68;2.15;;;13.80;99.90;;;;;;5086400;28;20413;-84
2022/11/08 00:16:50;;;;;;;12.18;2.20;;;13.80;99.90;;;;;;5089769;28;20489;-84
2022/11/08 00:19:16;;;;;;;13.57;3.88;;;13.80;99.90;;;;;;5089672;28;20047;-84
2022/11/08 00:21:41;;;;;;;8.55;2.10;;;13.80;99.90;;;;;;5072101;28;20394;-84
2022/11/08 00:24:07;;;;;;;9.30;2.08;;;13.80;99.90;;;;;;5089515;28;20048;-84
2022/11/08 00:26:32;;;;;;;7.53;2.03;;;13.70;99.90;;;;;;5089618;28;20035;-84
2022/11/08 00:28:58;;;;;;;13.38;2.10;;;13.70;99.90;;;;;;5072727;28;20069;-84
2022/11/08 00:31:24;;;;;;;14.02;3.80;;;13.70;99.90;;;;;;5073405;28;20044;-84
2022/11/08 00:33:49;;;;;;;13.02;3.50;;;13.70;99.90;;;;;;5072086;28;20085;-84
2022/11/08 00:36:15;;;;;;;9.38;2.97;;;13.70;99.90;;;;;;5090490;28;20085;-84
2022/11/08 00:38:42;;;;;;;10.82;1.95;;;13.70;99.90;;;;;;5089551;28;20097;-84
2022/11/08 00:41:08;;;;;;;11.75;2.47;;;13.60;99.90;;;;;;5072868;28;20040;-84
2022/11/08 00:43:33;;;;;;;13.13;2.42;;;13.60;99.90;;;;;;5089434;28;20481;-85
2022/11/08 00:45:59;;;;;;;13.85;3.80;;;13.50;99.90;;;;;;5072376;28;20067;-85
2022/11/08 00:48:24;;;;;;;14.05;2.35;;;13.60;99.90;;;;;;5090172;28;20040;-85
2022/11/08 00:50:50;;;;;;;11.15;2.28;;;13.60;99.90;;;;;;5072777;28;20043;-84
2022/11/08 00:53:16;;;;;;;11.60;3.40;;;13.50;99.90;;;;;;5089890;28;20691;-85
2022/11/08 00:55:42;;;;;;;13.40;2.58;;;13.50;99.90;;;;;;5090834;28;20043;-85
2022/11/08 00:58:07;;;;;;;10.90;2.40;;;13.50;99.90;;;;;;5089436;28;20028;-84
2022/11/08 01:00:33;;;;;;;10.63;2.42;;;13.40;99.90;;;;;;5089430;28;20416;-85
2022/11/08 01:05:42;;;;;;;11.30;3.30;;;13.40;99.90;;;;;;5089981;28;20044;-84
2022/11/08 01:08:09;;;;;;;10.38;2.17;;;13.40;99.90;;;;;;5089825;28;20040;-85
2022/11/08 01:10:35;;;;;;;9.27;2.33;;;13.40;99.90;;;;;;5072751;28;20079;-85
2022/11/08 01:13:01;;;;;;;8.55;2.05;;;13.30;99.90;;;;;;5072514;28;20040;-85
2022/11/08 01:15:26;;;;;;;10.60;2.05;;;13.30;99.90;;;;;;5089224;28;20035;-84
2022/11/08 01:17:52;;;;;;;14.10;3.78;;;13.20;99.90;;;;;;5072942;28;20066;-85
2022/11/08 01:20:17;;;;;;;9.30;2.30;;;13.30;99.90;;;;;;5094613;28;20040;-84
2022/11/08 01:22:43;;;;;;;11.43;2.95;;;13.20;99.90;;;;;;5075999;28;20044;-84
2022/11/08 01:25:08;;;;;;;9.93;2.45;;;13.20;99.90;;;;;;5093510;28;20051;-84
2022/11/08 01:27:34;;;;;;;7.13;1.85;;;13.20;99.90;;;;;;5092826;28;20036;-84
2022/11/08 01:29:59;;;;;;;7.65;2.97;;;13.10;99.90;;;;;;5093257;28;20118;-84
2022/11/08 01:32:25;;;;;;;9.18;2.10;;;13.20;99.90;;;;;;5094610;28;20059;-84
2022/11/08 01:34:50;;;;;;;13.50;3.83;;;13.10;99.90;;;;;;5092395;28;20040;-84
2022/11/08 01:37:16;;;;;;;13.20;3.50;;;13.20;99.90;;;;;;5076481;28;20039;-84
2022/11/08 01:39:42;;;;;;;10.63;2.47;;;13.20;99.90;;;;;;5075784;28;20111;-84
2022/11/08 01:42:07;;;;;;;7.90;2.30;;;13.20;99.90;;;;;;5075858;28;20590;-84
2022/11/08 01:44:33;;;;;;;10.48;2.28;;;13.10;99.90;;;;;;5076361;28;20497;-84
2022/11/08 01:46:58;;;;;;;16.52;3.45;;;13.10;99.90;;;;;;5092180;28;20028;-84
2022/11/08 01:49:32;;;;;;;11.65;3.28;;;13.10;99.90;;;;;;5093423;28;20387;-84
2022/11/08 01:52:04;;;;;;;10.05;2.00;;;13.20;99.90;;;;;;5092752;28;20051;-84
2022/11/08 01:55:12;;;;;;;9.63;2.33;;;13.10;99.90;;;;;;5092369;28;20051;-84
2022/11/08 01:57:48;;;;;;;7.97;1.67;;;13.10;99.90;;;;;;5051769;28;20045;-85
2022/11/08 02:00:15;;;;;;;11.60;2.05;;;13.10;99.90;;;;;;5034145;28;20048;-84
2022/11/08 02:02:42;;;;;;;13.45;3.47;;;13.10;99.90;;;;;;5034722;28;20198;-84
2022/11/08 02:05:23;;;;;;;10.07;2.30;;;13.10;99.90;;;;;;5033638;28;20055;-84
2022/11/08 02:08:01;;;;;;;11.60;3.40;;;13.20;99.90;;;;;;5018261;28;20036;-85
2022/11/08 02:10:39;;;;;;;9.05;2.33;;;13.20;99.90;;;;;;5033859;28;20102;-84
2022/11/08 02:13:09;;;;;;;8.35;1.80;;;13.20;99.90;;;;;;5034167;28;20124;-84
2022/11/08 02:15:35;;;;;;;9.35;2.10;;;13.10;99.90;;;;;;5033306;28;20127;-84
2022/11/08 02:18:01;;;;;;;12.73;3.42;;;13.10;99.90;;;;;;5034514;28;20140;-84
2022/11/08 02:20:27;;;;;;;10.40;2.58;;;13.10;99.90;;;;;;5067735;28;20091;-84
2022/11/08 02:23:02;;;;;;;7.75;2.03;;;13.10;99.90;;;;;;5016829;28;20409;-84
2022/11/08 02:25:27;;;;;;;11.02;2.75;;;13.00;99.90;;;;;;5034385;28;20133;-84
2022/11/08 02:27:53;;;;;;;9.20;2.00;;;13.00;99.90;;;;;;5017503;28;20119;-84
2022/11/08 02:30:18;;;;;;;12.07;3.05;;;13.00;99.90;;;;;;5033320;28;20506;-85
2022/11/08 02:32:46;;;;;;;9.88;1.80;;;13.00;99.90;;;;;;5053642;28;20056;-84
2022/11/08 02:35:15;;;;;;;10.27;2.10;;;12.90;99.90;;;;;;5076121;28;20051;-84
2022/11/08 02:37:41;;;;;;;10.65;2.72;;;12.90;99.90;;;;;;5091530;28;20044;-84
2022/11/08 02:40:07;;;;;;;10.05;1.92;;;12.80;99.90;;;;;;5091805;28;20044;-84
2022/11/08 02:42:33;;;;;;;8.25;1.83;;;12.80;99.90;;;;;;5074040;28;20036;-84
2022/11/08 02:44:58;;;;;;;7.80;2.40;;;12.80;99.90;;;;;;5075049;28;20404;-85
2022/11/08 02:47:24;;;;;;;10.50;2.63;;;12.80;99.90;;;;;;5091537;28;20118;-84
2022/11/08 02:49:49;;;;;;;9.48;2.15;;;12.80;99.90;;;;;;5091573;28;20129;-85
2022/11/08 02:52:15;;;;;;;9.40;1.70;;;12.80;99.90;;;;;;5075129;28;20776;-84
2022/11/08 02:54:41;;;;;;;8.93;2.72;;;12.70;99.90;;;;;;5091306;28;20519;-84
2022/11/08 02:57:06;;;;;;;7.63;2.38;;;12.70;99.90;;;;;;5091274;28;20048;-84
2022/11/08 02:59:32;;;;;;;7.75;1.90;;;12.70;99.90;;;;;;5091261;28;20040;-84
2022/11/08 03:01:57;;;;;;;12.05;3.22;;;12.70;99.90;;;;;;5074023;28;20036;-84
2022/11/08 03:04:23;;;;;;;8.88;1.98;;;12.70;99.90;;;;;;5091514;28;20122;-84
2022/11/08 03:06:48;;;;;;;5.75;1.83;;;12.70;99.90;;;;;;5090734;28;20032;-85
2022/11/08 03:09:14;;;;;;;8.60;2.42;;;12.70;99.90;;;;;;5091929;28;20050;-84
2022/11/08 03:11:40;;;;;;;13.00;2.45;;;12.60;99.90;;;;;;5090573;28;20089;-84
2022/11/08 03:14:05;;;;;;;8.40;2.70;;;12.60;99.90;;;;;;5091146;28;20135;-84
2022/11/08 03:16:31;;;;;;;8.65;2.22;;;12.60;99.90;;;;;;5091286;28;20045;-84
2022/11/08 03:18:56;;;;;;;8.15;2.10;;;12.60;99.90;;;;;;5090499;28;20047;-84
2022/11/08 03:21:22;;;;;;;8.52;2.15;;;12.60;99.90;;;;;;5074408;28;20504;-84
2022/11/08 03:23:48;;;;;;;14.70;2.28;;;12.50;99.90;;;;;;5090590;28;20039;-84
2022/11/08 03:26:13;;;;;;;7.10;1.77;;;12.50;99.90;;;;;;5091240;28;20051;-84
2022/11/08 03:28:39;;;;;;;7.43;1.95;;;12.50;99.90;;;;;;5074327;28;20036;-84
2022/11/08 03:31:04;;;;;;;8.30;1.77;;;12.50;99.90;;;;;;5090243;28;20074;-84
2022/11/08 03:33:30;;;;;;;13.52;3.17;;;12.50;99.90;;;;;;5090606;28;20093;-84
2022/11/08 03:35:55;;;;;;;9.20;2.17;;;12.50;99.90;;;;;;5073401;28;20068;-84
2022/11/08 03:38:21;;;;;;;8.65;2.55;;;12.50;99.90;;;;;;5090915;28;20048;-84
2022/11/08 03:40:47;;;;;;;8.10;1.67;;;12.50;99.90;;;;;;5090794;28;20560;-84
2022/11/08 03:43:12;;;;;;;8.23;2.00;;;12.40;99.90;;;;;;5088688;28;20716;-84
2022/11/08 03:45:38;;;;;;;8.15;2.20;;;12.50;99.90;;;;;;5073848;28;20028;-84
2022/11/08 03:48:04;;;;;;;8.15;1.90;;;12.40;99.90;;;;;;5073331;28;20409;-84
2022/11/08 03:50:29;;;;;;;9.63;2.17;;;12.40;99.90;;;;;;5073612;28;20046;-84
2022/11/08 03:52:55;;;;;;;12.27;3.50;;;12.40;99.90;;;;;;5090331;28;20074;-84
2022/11/08 03:55:24;;;;;;;8.02;2.00;;;12.40;99.90;;;;;;5089189;28;20048;-84
2022/11/08 03:57:51;;;;;;;11.65;2.63;;;12.40;99.90;;;;;;5090407;28;20052;-84
2022/11/08 04:00:24;;;;;;;9.55;2.22;;;12.40;99.90;;;;;;5090079;28;20032;-84
2022/11/08 04:02:49;;;;;;;7.90;1.70;;;12.40;99.90;;;;;;5089772;28;20028;-84
2022/11/08 04:05:16;;;;;;;10.30;1.70;;;12.30;99.90;;;;;;5073270;28;20127;-84
2022/11/08 04:07:42;;;;;;;9.73;1.80;;;12.30;99.90;;;;;;5073295;28;20036;-84
2022/11/08 04:10:09;;;;;;;7.50;2.03;;;12.30;99.90;;;;;;5090783;28;20062;-84
2022/11/08 04:15:26;;;;;;;7.85;1.95;;;12.30;99.90;;;;;;5090121;28;20044;-84
2022/11/08 04:23:31;;;;;;;10.10;1.90;;;12.20;99.90;;;;;;5078182;28;20035;-84
2022/11/08 04:25:59;;;;;;;8.43;1.67;;;12.20;99.90;;;;;;5089727;28;20500;-84
2022/11/08 04:28:27;;;;;;;11.63;2.33;;;12.20;99.90;;;;;;5090626;28;20093;-84
2022/11/08 04:30:54;;;;;;;7.47;2.10;;;12.20;99.90;;;;;;5072224;28;20036;-84
2022/11/08 04:33:20;;;;;;;7.18;1.75;;;12.20;99.90;;;;;;5089991;28;20067;-84
2022/11/08 04:35:46;;;;;;;9.30;2.95;;;12.20;99.90;;;;;;5089992;28;20067;-84
2022/11/08 04:38:11;;;;;;;8.27;2.08;;;12.20;99.90;;;;;;5089138;28;20032;-84
2022/11/08 04:40:37;;;;;;;9.80;1.83;;;12.20;99.90;;;;;;5072995;28;20047;-84
2022/11/08 04:43:02;;;;;;;7.43;1.88;;;12.20;99.90;;;;;;5089184;28;20059;-84
2022/11/08 04:45:28;;;;;;;8.13;1.77;;;12.20;99.90;;;;;;5087193;28;20421;-84
2022/11/08 04:47:53;;;;;;;10.45;2.22;;;12.20;99.90;;;;;;5090175;28;20435;-84
2022/11/08 04:50:19;;;;;;;11.10;2.72;;;12.20;99.90;;;;;;5088806;28;20493;-84
2022/11/08 04:52:51;;;;;;;9.95;2.67;;;12.20;99.90;;;;;;5089777;28;20443;-84
2022/11/08 04:55:18;;;;;;;6.95;1.65;;;12.20;99.90;;;;;;5076396;28;20159;-84
2022/11/08 04:57:43;;;;;;;9.63;2.25;;;12.20;99.90;;;;;;5093580;28;20036;-84
2022/11/08 05:00:09;;;;;;;9.40;2.03;;;12.20;99.90;;;;;;5093974;28;20201;-84
2022/11/08 05:02:35;;;;;;;6.85;2.28;;;12.20;99.90;;;;;;5092926;28;20036;-84
2022/11/08 05:05:00;;;;;;;9.50;3.08;;;12.20;99.90;;;;;;5093852;28;20441;-84
2022/11/08 05:07:28;;;;;;;6.03;1.65;;;12.20;99.90;;;;;;5093253;28;20037;-84
2022/11/08 05:09:54;;;;;;;10.23;1.83;;;12.20;99.90;;;;;;5076576;28;20044;-84
2022/11/08 05:12:20;;;;;;;8.07;2.00;;;12.20;99.90;;;;;;5093836;28;20109;-84
2022/11/08 05:14:46;;;;;;;7.75;1.98;;;12.20;99.90;;;;;;5092604;28;20488;-84
2022/11/08 05:17:11;;;;;;;7.60;2.08;;;12.20;99.90;;;;;;5093868;28;20148;-84
2022/11/08 05:25:05;;;;;;;10.32;2.90;;;12.10;99.90;;;;;;5092481;28;20075;-84
2022/11/08 05:27:31;;;;;;;9.93;2.15;;;12.20;99.90;;;;;;5092774;28;20071;-84
2022/11/08 05:29:56;;;;;;;6.75;1.70;;;12.20;99.90;;;;;;5092862;28;20115;-84
2022/11/08 05:32:22;;;;;;;8.88;2.35;;;12.20;99.90;;;;;;5075316;28;20044;-84
2022/11/08 05:34:48;;;;;;;9.15;2.80;;;12.10;99.90;;;;;;5093347;28;20051;-84
2022/11/08 05:37:13;;;;;;;7.10;1.80;;;12.20;99.90;;;;;;5075415;28;20043;-84
2022/11/08 05:39:39;;;;;;;7.15;2.33;;;12.20;99.90;;;;;;5093101;28;20051;-84
2022/11/08 05:42:04;;;;;;;6.53;1.98;;;12.10;99.90;;;;;;5092525;28;20039;-84
2022/11/08 05:44:30;;;;;;;9.50;2.03;;;12.10;99.90;;;;;;5075631;28;20045;-84
2022/11/08 05:46:55;;;;;;;6.13;1.98;;;12.10;99.90;;;;;;5076304;28;20181;-84
2022/11/08 05:49:21;;;;;;;6.53;2.10;;;12.10;99.90;;;;;;5092418;28;20040;-84
2022/11/08 05:51:46;;;;;;;11.75;3.33;;;12.10;99.90;;;;;;5076285;28;20040;-84
2022/11/08 05:54:12;;;;;;;8.68;2.20;;;12.10;99.90;;;;;;5074850;28;20086;-84
2022/11/08 05:56:38;;;;;;;6.85;1.92;;;12.20;99.90;;;;;;5092723;28;20044;-84
2022/11/08 05:59:04;;;;;;;11.60;2.53;;;12.10;99.90;;;;;;5075912;28;20502;-84
2022/11/08 06:01:30;;;;;;;5.07;1.90;;;12.10;99.90;;;;;;5092465;28;20149;-84
2022/11/08 06:03:55;;;;;;;6.38;1.80;;;12.00;99.90;;;;;;5092467;28;20058;-84
2022/11/08 06:06:21;;;;;;;9.70;2.28;;;12.00;99.90;;;;;;5091105;28;20062;-84
2022/11/08 06:08:48;;;;;;;7.60;2.00;;;12.00;99.90;;;;;;5055942;28;20043;-84
2022/11/08 06:11:16;;;;;;;7.25;2.20;;;12.00;99.90;;;;;;5078730;28;20051;-84
2022/11/08 06:13:42;;;;;;;9.85;2.50;;;12.00;99.90;;;;;;5091828;28;20065;-84
2022/11/08 06:16:11;;;;;;;9.50;2.85;;;11.90;99.90;;;;;;5091800;28;20044;-84
2022/11/08 06:18:38;;;;;;;7.53;2.00;;;11.90;99.90;;;;;;5074504;28;20108;-84
2022/11/08 06:21:06;;;;;;;9.85;2.90;;;11.90;99.90;;;;;;5126730;27;20036;-84
2022/11/08 06:23:32;;;;;;;8.88;2.60;;;11.90;99.90;;;;;;5074339;28;20036;-84
2022/11/08 06:25:59;;;;;;;8.30;2.83;;;11.90;99.90;;;;;;5091456;28;20043;-84
2022/11/08 06:28:25;;;;;;;10.32;2.90;;;11.90;99.90;;;;;;5075524;28;20043;-84
2022/11/08 06:30:50;;;;;;;11.65;3.17;;;11.80;99.90;;;;;;5091208;28;20077;-84
2022/11/08 06:33:16;;;;;;;11.18;2.50;;;11.80;99.90;;;;;;5091982;28;20035;-84
2022/11/08 06:35:42;;;;;;;9.75;3.10;;;11.80;99.90;;;;;;5075037;28;20471;-84
2022/11/08 06:38:07;;;;;;;9.60;3.05;;;11.80;99.90;;;;;;5091744;28;20043;-84
2022/11/08 06:40:33;;;;;;;8.00;2.13;;;11.80;99.90;;;;;;5092186;28;20127;-84
2022/11/08 06:42:59;;;;;;;14.70;2.47;;;11.80;99.90;;;;;;5073886;28;20028;-84
2022/11/08 06:45:26;;;;;;;13.77;2.45;;;11.80;99.90;;;;;;5092061;28;20169;-84
2022/11/08 06:47:59;;;;;;;9.40;2.28;;;11.80;99.90;;;;;;5092032;28;20032;-84
2022/11/08 06:50:26;;;;;;;7.57;2.13;;;11.70;99.90;;;;;;5073916;28;20097;-84
2022/11/08 06:52:56;;;;;;;7.35;1.90;;;11.70;99.90;;;;;;5091542;28;20075;-84
2022/11/08 06:55:22;;;;;;;8.50;2.28;;;11.70;99.90;;;;;;5091346;28;20040;-84
2022/11/08 06:57:48;;;;;;;8.73;1.80;;;11.70;99.90;;;;;;5091725;28;20054;-84
2022/11/08 07:00:14;;;;;;;7.07;2.00;;;11.70;99.90;;;;;;5091176;28;20501;-84
2022/11/08 07:02:40;;;;;;;7.38;2.10;;;11.70;99.90;;;;;;5074316;28;20036;-84
2022/11/08 07:05:05;;;;;;;9.85;2.30;;;11.70;99.90;;;;;;5091489;28;20507;-84
2022/11/08 07:07:31;;;;;;;9.25;2.25;;;11.70;99.90;;;;;;5074025;28;20115;-84
2022/11/08 07:09:56;;;;;;;7.63;3.05;;;11.70;99.90;;;;;;5091502;28;20028;-84
2022/11/08 07:12:22;;;;;;;7.43;2.17;;;11.70;99.90;;;;;;5073925;28;20043;-84
2022/11/08 07:14:48;;;;;;;9.57;2.40;;;11.70;99.90;;;;;;5090726;28;20043;-84
2022/11/08 07:17:14;;;;;;;10.57;2.30;;;11.70;99.90;;;;;;5090953;28;20039;-83
2022/11/08 07:19:41;;;;;;;8.80;2.53;;;11.70;99.90;;;;;;5090998;28;20048;-84
2022/11/08 07:22:07;;;;;;;10.00;2.60;;;11.70;99.90;;;;;;5092688;28;20046;-84
2022/11/08 07:24:32;;;;;;;8.32;2.97;;;11.70;99.90;;;;;;5090266;28;20473;-84
2022/11/08 07:26:58;;;;;;;7.82;2.40;;;11.70;99.90;;;;;;5074231;28;20044;-84
2022/11/08 07:29:23;;;;;;;9.13;2.65;;;11.70;99.90;;;;;;5091278;28;20556;-84
2022/11/08 07:31:49;;;;;;;8.30;2.70;;;11.80;99.90;;;;;;5090283;28;20048;-84
2022/11/08 07:34:16;;;;;;;8.85;2.33;;;11.80;99.90;;;;;;5073965;28;20089;-84
2022/11/08 07:36:42;;;;;;;9.55;2.95;;;11.80;99.90;;;;;;5073255;28;20043;-84
2022/11/08 07:39:07;;;;;;;6.25;1.95;;;11.80;99.90;;;;;;5090852;28;20044;-84
2022/11/08 07:41:33;;;;;;;11.25;2.15;;;11.80;99.90;;;;;;5087452;28;20032;-84
2022/11/08 07:43:59;;;;;;;7.40;2.15;;;11.80;99.90;;;;;;5072416;28;20044;-84
2022/11/08 07:46:24;;;;;;;7.50;2.00;;;11.90;99.90;;;;;;5090440;28;20071;-84
2022/11/08 07:48:50;;;;;;;7.45;1.95;;;11.90;99.90;;;;;;5073320;28;20620;-84
2022/11/08 07:51:15;;;;;;;7.85;1.92;;;11.90;99.90;;;;;;5089474;28;20461;-84
2022/11/08 07:53:42;;;;;;;8.52;2.05;;;11.90;99.90;;;;;;5088058;28;20040;-84
2022/11/08 07:56:08;;;;;;;6.20;2.03;;;11.90;99.90;;;;;;5090073;28;20181;-84
2022/11/08 07:58:34;;;;;;;8.55;2.15;;;11.90;99.90;;;;;;5089169;28;20119;-84
2022/11/08 08:01:02;;;;;;;7.53;2.08;;;12.00;99.90;;;;;;5072589;28;20043;-84
2022/11/08 08:03:28;;;;;;;7.32;1.75;;;11.90;99.90;;;;;;5089637;28;20054;-84
2022/11/08 08:05:54;;;;;;;8.68;1.95;;;12.00;99.90;;;;;;5088978;28;20028;-84
2022/11/08 08:08:20;;;;;;;7.70;2.30;;;12.00;99.90;;;;;;5090291;28;20123;-84
2022/11/08 08:10:46;;;;;;;7.72;2.10;;;12.10;99.90;;;;;;5073260;28;20043;-84
2022/11/08 08:13:11;;;;;;;6.50;1.55;;;12.20;99.90;;;;;;5071914;28;20040;-84
2022/11/08 08:15:37;;;;;;;7.40;1.70;;;12.20;99.90;;;;;;5089791;28;20127;-84
2022/11/08 08:18:05;;;;;;;8.35;1.75;;;12.20;99.90;;;;;;5072317;28;20040;-84
2022/11/08 08:20:31;;;;;;;8.15;1.90;;;12.30;99.90;;;;;;5073077;28;20089;-84
2022/11/08 08:22:57;;;;;;;5.28;1.40;;;12.30;99.90;;;;;;5089469;28;20032;-84
2022/11/08 08:25:24;;;;;;;6.47;1.60;;;12.40;99.90;;;;;;5072089;28;20035;-84
2022/11/08 08:27:51;;;;;;;5.28;1.58;;;12.40;99.90;;;;;;5089277;28;20035;-84
2022/11/08 08:30:18;;;;;;;7.55;2.00;;;12.50;99.90;;;;;;5072447;28;20114;-84
2022/11/08 08:32:44;;;;;;;7.82;1.80;;;12.60;99.90;;;;;;5071545;28;20420;-84
2022/11/08 08:35:11;;;;;;;5.97;1.50;;;12.60;99.90;;;;;;5092706;28;20046;-84
2022/11/08 08:37:37;;;;;;;8.43;2.38;;;12.70;99.90;;;;;;5118191;27;20459;-84
2022/11/08 08:40:03;;;;;;;4.55;1.40;;;12.80;99.90;;;;;;5089423;28;20556;-84
2022/11/08 08:42:31;;;;;;;5.22;1.58;;;12.90;99.90;;;;;;5088992;28;20085;-84
2022/11/08 08:44:56;;;;;;;8.15;1.83;;;12.90;99.90;;;;;;5072318;28;20039;-84
2022/11/08 08:47:22;;;;;;;6.72;2.10;;;13.00;99.90;;;;;;5089646;28;20036;-84
2022/11/08 08:49:47;;;;;;;6.68;2.10;;;13.10;99.90;;;;;;5088718;28;20035;-84
2022/11/08 08:52:13;;;;;;;7.95;1.70;;;13.10;99.90;;;;;;5089325;28;20072;-84
2022/11/08 08:54:38;;;;;;;5.13;1.70;;;13.20;99.90;;;;;;5089594;28;20051;-84
2022/11/08 08:57:04;;;;;;;4.97;1.63;;;13.20;99.90;;;;;;5088133;28;20382;-84
2022/11/08 08:59:30;;;;;;;7.13;2.10;;;13.20;99.90;;;;;;5089595;28;20516;-84
2022/11/08 09:01:55;;;;;;;7.63;2.13;;;13.30;99.90;;;;;;5070972;28;20044;-84
2022/11/08 09:04:21;;;;;;;7.15;2.03;;;13.40;99.90;;;;;;5069641;28;20044;-84
2022/11/08 09:06:46;;;;;;;5.07;1.40;;;13.50;99.90;;;;;;5071542;28;20036;-84
2022/11/08 09:09:12;;;;;;;4.13;1.35;;;13.50;99.90;;;;;;5088009;28;20052;-84
2022/11/08 09:11:37;;;;;;;6.80;1.50;;;13.60;99.90;;;;;;5088314;28;20417;-84
2022/11/08 09:14:03;;;;;;;7.57;1.48;;;13.60;99.90;;;;;;5088420;28;20494;-84
2022/11/08 09:16:28;;;;;;;5.53;1.90;;;13.70;99.90;;;;;;5070631;28;20429;-84
2022/11/08 09:18:54;;;;;;;5.70;1.52;;;13.80;99.90;;;;;;5071852;28;20131;-84
2022/11/08 09:21:20;;;;;;;6.60;2.00;;;13.90;99.90;;;;;;5072011;28;20064;-84
2022/11/08 09:23:45;;;;;;;5.35;1.63;;;13.90;99.90;;;;;;5071869;28;20475;-84
2022/11/08 09:26:11;;;;;;;6.38;1.80;;;14.00;99.90;;;;;;5089133;28;20044;-84
2022/11/08 09:28:37;;;;;;;6.10;1.35;;;14.00;99.90;;;;;;5071230;28;20040;-84
2022/11/08 09:31:08;;;;;;;4.15;1.33;;;14.10;99.90;;;;;;5071248;28;20073;-84
2022/11/08 09:33:34;;;;;;;5.50;1.55;;;14.10;99.90;;;;;;5087669;28;20031;-84
2022/11/08 09:36:02;;;;;;;7.68;2.13;;;14.20;99.90;;;;;;5087360;28;20489;-84
2022/11/08 09:38:28;;;;;;;7.38;2.08;;;14.30;99.90;;;;;;5085183;28;20039;-84
2022/11/08 09:41:17;;;;;;;5.85;1.70;;;14.30;99.90;;;;;;5073885;28;20032;-84
2022/11/08 09:44:06;;;;;;;5.53;1.45;;;14.30;99.90;;;;;;5099646;28;20063;-84
2022/11/08 09:46:41;;;;;;;6.90;2.00;;;14.40;99.90;;;;;;5095799;28;20112;-84
2022/11/08 09:49:16;;;;;;;3.50;1.10;;;14.50;99.90;;;;;;5091552;28;20039;-84
2022/11/08 09:51:41;;;;;;;7.47;2.13;;;14.50;99.90;;;;;;5092733;28;20058;-84
2022/11/08 09:54:16;;;;;;;5.35;1.55;;;14.50;99.90;;;;;;5074993;28;20467;-84
2022/11/08 09:56:42;;;;;;;4.22;1.30;;;14.50;99.90;;;;;;5092523;28;20416;-84
2022/11/08 09:59:17;;;;;;;6.55;1.45;;;14.50;99.90;;;;;;5092225;28;20046;-84
2022/11/08 10:01:43;;;;;;;6.55;1.85;;;14.50;99.90;;;;;;5074702;28;20386;-84
2022/11/08 10:04:14;;;;;;;6.72;2.10;;;14.50;99.90;;;;;;5091674;28;20101;-84
2022/11/08 10:06:47;;;;;;;4.60;1.20;;;14.60;99.90;;;;;;5073970;28;20039;-84
2022/11/08 10:09:15;;;;;;;5.40;1.23;;;14.60;99.90;;;;;;5089947;28;20286;-84
2022/11/08 10:12:12;;;;;;;6.75;1.92;;;14.60;99.90;;;;;;5090841;28;20093;-84
2022/11/08 10:15:11;;;;;;;7.65;2.40;;;14.70;99.90;;;;;;5088617;28;20040;-84
2022/11/08 10:18:08;;;;;;;8.93;2.55;;;14.70;99.90;;;;;;5076390;28;20043;-84
2022/11/08 10:20:34;;;;;;;5.13;1.45;;;14.70;99.90;;;;;;5098170;28;20036;-84
2022/11/08 10:23:35;;;;;;;5.72;1.80;;;14.70;99.90;;;;;;5073471;28;20032;-84
2022/11/08 10:26:08;;;;;;;8.23;2.20;;;14.70;99.90;;;;;;5048915;28;20049;-84
2022/11/08 10:28:40;;;;;;;8.25;2.25;;;14.70;99.90;;;;;;5093807;28;20162;-84
2022/11/08 10:31:06;;;;;;;8.52;2.42;;;14.80;99.90;;;;;;5088625;28;20044;-84
2022/11/08 10:33:37;;;;;;;7.85;2.40;;;14.80;99.90;;;;;;5097249;28;20046;-84
2022/11/08 10:36:12;;;;;;;6.10;1.50;;;14.80;99.90;;;;;;5105636;28;20040;-84
2022/11/08 10:38:52;;;;;;;3.13;1.38;;;14.80;99.90;;;;;;5056290;28;20047;-84
2022/11/08 10:41:38;;;;;;;5.78;1.85;;;14.80;99.90;;;;;;5072505;28;20050;-84
2022/11/08 10:44:14;;;;;;;8.55;2.50;;;14.70;99.90;;;;;;5090103;28;20043;-84
2022/11/08 10:46:42;;;;;;;7.60;2.30;;;14.70;99.90;;;;;;5072818;28;20508;-84
2022/11/08 10:49:21;;;;;;;5.85;1.40;;;14.80;99.90;;;;;;5091126;28;20513;-84
2022/11/08 10:51:53;;;;;;;6.43;1.75;;;14.80;99.90;;;;;;5089706;28;20113;-84
2022/11/08 10:54:46;;;;;;;8.35;2.10;;;14.70;99.90;;;;;;5090998;28;20086;-84
2022/11/08 10:57:44;;;;;;;8.00;2.30;;;14.70;99.90;;;;;;5090300;28;20508;-84
2022/11/08 11:00:19;;;;;;;6.55;1.75;;;14.80;99.90;;;;;;5057815;28;20063;-85
2022/11/08 11:02:51;;;;;;;5.18;1.48;;;14.70;99.90;;;;;;5090570;28;20670;-84
2022/11/08 11:05:17;;;;;;;8.68;2.40;;;14.70;99.90;;;;;;5074461;28;20089;-84
2022/11/08 11:08:06;;;;;;;6.88;2.45;;;14.80;99.90;;;;;;5073970;28;20044;-84
2022/11/08 11:10:36;;;;;;;8.43;2.38;;;14.80;99.90;;;;;;5072221;28;20043;-84
2022/11/08 11:13:03;;;;;;;7.03;2.08;;;14.80;99.90;;;;;;5073673;28;20044;-84
2022/11/08 11:15:34;;;;;;;6.05;2.03;;;14.80;99.90;;;;;;5090395;28;20040;-84
2022/11/08 11:18:01;;;;;;;4.47;1.42;;;14.80;99.90;;;;;;5073853;28;20040;-84
2022/11/08 11:20:27;;;;;;;5.50;1.95;;;14.80;99.90;;;;;;5072618;28;20513;-84
2022/11/08 11:22:53;;;;;;;8.90;2.10;;;14.70;99.90;;;;;;5090492;28;20529;-84
2022/11/08 11:25:21;;;;;;;7.88;2.17;;;14.80;99.90;;;;;;5090730;28;20039;-84
2022/11/08 11:27:58;;;;;;;4.38;1.42;;;14.90;99.90;;;;;;5073067;28;20161;-84
2022/11/08 11:30:27;;;;;;;7.85;2.15;;;14.90;99.90;;;;;;5090999;28;20082;-84
2022/11/08 11:32:58;;;;;;;7.70;2.25;;;15.00;99.90;;;;;;5073013;28;20040;-84
2022/11/08 11:35:45;;;;;;;7.13;2.33;;;15.10;99.90;;;;;;5090630;28;20378;-84
2022/11/08 11:38:23;;;;;;;8.60;2.45;;;15.20;99.90;;;;;;5073745;28;20071;-84
2022/11/08 11:40:51;;;;;;;6.68;1.95;;;15.30;99.90;;;;;;5089827;28;20048;-84
2022/11/08 11:43:38;;;;;;;6.82;2.00;;;15.40;99.90;;;;;;5073227;28;20416;-85
2022/11/08 11:46:41;;;;;;;7.55;2.13;;;15.40;99.90;;;;;;5090055;28;20024;-85
2022/11/08 11:49:15;;;;;;;7.47;2.05;;;15.40;99.90;;;;;;5076248;28;21875;-84
2022/11/08 11:51:41;;;;;;;7.80;2.25;;;15.40;99.90;;;;;;5073149;28;20097;-85
2022/11/08 11:54:10;;;;;;;5.97;1.58;;;15.30;99.90;;;;;;5090399;28;20508;-85
2022/11/08 11:56:58;;;;;;;6.72;1.73;;;15.30;99.90;;;;;;5072011;28;20035;-85
2022/11/08 12:00:03;;;;;;;7.03;1.85;;;15.20;99.90;;;;;;5088454;28;20443;-84
2022/11/08 12:03:06;;;;;;;7.15;1.95;;;15.30;99.90;;;;;;5089366;28;20067;-85
2022/11/08 12:05:32;;;;;;;5.60;1.60;;;15.30;99.90;;;;;;5089644;28;20039;-85
2022/11/08 12:08:14;;;;;;;7.10;2.20;;;15.20;99.90;;;;;;5071192;28;20036;-85
2022/11/08 12:10:53;;;;;;;6.97;1.60;;;15.20;99.90;;;;;;5072282;28;20041;-85
2022/11/08 12:13:22;;;;;;;7.85;2.20;;;15.20;99.90;;;;;;5088917;28;20040;-85
2022/11/08 12:16:13;;;;;;;8.45;2.17;;;15.30;99.90;;;;;;5073663;28;20130;-85
2022/11/08 12:19:04;;;;;;;7.35;2.20;;;15.40;99.90;;;;;;5064537;28;20048;-84
2022/11/08 12:22:01;;;;;;;4.18;1.20;;;15.50;99.90;;;;;;5089730;28;20071;-85
2022/11/08 12:24:52;;;;;;;5.55;1.50;;;15.50;99.90;;;;;;5073484;28;20042;-84
2022/11/08 12:27:45;;;;;;;7.25;1.90;;;15.50;99.90;;;;;;5073381;28;20696;-85
2022/11/08 12:30:18;;;;;;;7.55;1.35;;;15.50;99.90;;;;;;5067646;28;20064;-85
2022/11/08 12:32:53;;;;;;;7.05;2.10;;;15.40;99.90;;;;;;5069590;28;20039;-85
2022/11/08 12:35:47;;;;;;;10.07;2.58;;;15.40;99.90;;;;;;5087258;28;20109;-84
2022/11/08 12:38:28;;;;;;;7.50;2.15;;;15.40;99.90;;;;;;5089001;28;20196;-84
2022/11/08 12:41:00;;;;;;;5.88;1.58;;;15.40;99.90;;;;;;5071609;28;20083;-84
2022/11/08 12:43:44;;;;;;;3.30;1.30;;;15.30;99.90;;;;;;5086769;28;20513;-84
2022/11/08 12:46:20;;;;;;;7.32;1.67;;;15.20;99.90;;;;;;5089729;28;20093;-84
2022/11/08 12:49:20;;;;;;;9.20;2.20;;;15.20;99.90;;;;;;5072577;28;20036;-84
2022/11/08 12:51:58;;;;;;;6.45;2.08;;;15.30;99.90;;;;;;5073003;28;20477;-84
2022/11/08 12:54:42;;;;;;;7.72;2.28;;;15.30;99.90;;;;;;5072672;28;20535;-84
2022/11/08 12:57:12;;;;;;;6.35;1.65;;;15.40;99.90;;;;;;5089736;28;20043;-84
2022/11/08 12:59:43;;;;;;;6.28;1.95;;;15.60;99.90;;;;;;5089652;28;20127;-84
2022/11/08 13:02:22;;;;;;;6.93;2.20;;;16.00;99.90;;;;;;5072672;28;20044;-84
2022/11/08 13:04:57;;;;;;;6.55;1.80;;;16.90;99.40;;;;;;5072629;28;20050;-84
2022/11/08 13:07:49;;;;;;;6.05;1.63;;;17.70;93.80;;;;;;5089760;28;20075;-85
2022/11/08 13:10:21;;;;;;;6.68;2.13;;;18.10;88.50;;;;;;5089931;28;20047;-85
2022/11/08 13:12:53;;;;;;;5.53;1.65;;;17.80;87.80;;;;;;5089038;28;20055;-84
2022/11/08 13:15:23;;;;;;;7.45;2.10;;;17.40;91.50;;;;;;5091929;28;20040;-84
2022/11/08 13:18:15;;;;;;;6.35;2.00;;;17.20;92.70;;;;;;5093395;28;20605;-84
2022/11/08 13:20:46;;;;;;;7.32;1.88;;;17.10;92.50;;;;;;5124167;27;20051;-84
2022/11/08 13:23:12;;;;;;;9.68;2.13;;;17.00;92.60;;;;;;5076198;28;20040;-84
2022/11/08 13:25:40;;;;;;;9.02;1.95;;;16.80;93.20;;;;;;5093210;28;20032;-84